Time;durP1;ratioP1;P1;durP2;ratioP2;P2;SDS_P1;SDS_P2;PMS_P1;PMS_P2;Temp;Humidity;BMP_temperature;BMP_pressure;BME280_temperature;BME280_humidity;BME280_pressure;Samples;Min_cycle;Max_cycle;Signal;HPM_P1;HPM_P2
2022/10/02 00:01:42;;;;;;;10.57;4.35;;;;;;;;;;6292112;22;20019;-78
2022/10/02 00:04:13;;;;;;;10.18;4.70;;;;;;;;;;6279433;22;20020;-78
2022/10/02 00:06:45;;;;;;;10.90;5.22;;;;;;;;;;6307458;22;20026;-77
2022/10/02 00:09:38;;;;;;;12.20;5.35;;;;;;;;;;6307106;22;20437;-78
2022/10/02 00:12:09;;;;;;;10.48;5.03;;;;;;;;;;6302190;22;20023;-78
2022/10/02 00:14:38;;;;;;;15.18;6.97;;;;;;;;;;6306609;22;20560;-78
2022/10/02 00:17:06;;;;;;;12.40;5.50;;;;;;;;;;6307128;22;20019;-78
2022/10/02 00:19:33;;;;;;;13.93;6.10;;;;;;;;;;6307111;22;20029;-77
2022/10/02 00:22:11;;;;;;;9.55;5.47;;;;;;;;;;6305651;22;20100;-77
2022/10/02 00:24:43;;;;;;;13.27;6.65;;;;;;;;;;6307194;22;20384;-76
2022/10/02 00:27:14;;;;;;;13.88;7.00;;;;;;;;;;6307183;22;20083;-77
2022/10/02 00:29:52;;;;;;;13.27;7.20;;;;;;;;;;6307165;22;20341;-78
2022/10/02 00:32:26;;;;;;;14.00;6.93;;;;;;;;;;6306509;22;20337;-78
2022/10/02 00:34:54;;;;;;;14.25;7.03;;;;;;;;;;6307036;22;20064;-78
2022/10/02 00:37:40;;;;;;;15.65;8.43;;;;;;;;;;6306747;22;20047;-78
2022/10/02 00:40:13;;;;;;;16.20;9.02;;;;;;;;;;6307089;22;20094;-78
2022/10/02 00:42:41;;;;;;;12.77;7.00;;;;;;;;;;6306752;22;20015;-77
2022/10/02 00:45:20;;;;;;;13.48;8.52;;;;;;;;;;6307025;22;20061;-77
2022/10/02 00:47:48;;;;;;;12.80;7.43;;;;;;;;;;6306962;22;20904;-77
2022/10/02 00:50:22;;;;;;;18.85;13.55;;;;;;;;;;6306831;22;20551;-78
2022/10/02 00:52:59;;;;;;;11.80;8.33;;;;;;;;;;6306856;22;20078;-77
2022/10/02 00:55:36;;;;;;;18.17;8.60;;;;;;;;;;6279084;22;20015;-77
2022/10/02 00:58:22;;;;;;;14.88;9.00;;;;;;;;;;6306614;22;20026;-77
2022/10/02 01:00:59;;;;;;;13.43;8.30;;;;;;;;;;6306818;22;20026;-78
2022/10/02 01:03:29;;;;;;;12.40;9.18;;;;;;;;;;6307168;22;20468;-77
2022/10/02 01:05:56;;;;;;;16.75;9.32;;;;;;;;;;6279728;22;20022;-77
2022/10/02 01:08:26;;;;;;;15.20;9.10;;;;;;;;;;6306734;22;20011;-76
2022/10/02 01:10:54;;;;;;;14.75;9.50;;;;;;;;;;6279058;22;20321;-77
2022/10/02 01:13:22;;;;;;;14.27;9.32;;;;;;;;;;6306675;22;20015;-77
2022/10/02 01:15:51;;;;;;;17.00;9.15;;;;;;;;;;6306469;22;20084;-77
2022/10/02 01:18:19;;;;;;;12.43;8.82;;;;;;;;;;6306559;22;20015;-79
2022/10/02 01:20:48;;;;;;;14.10;9.23;;;;;;;;;;6306931;22;20015;-77
2022/10/02 01:23:30;;;;;;;15.35;8.90;;;;;;;;;;6306742;22;20088;-77
2022/10/02 01:25:58;;;;;;;12.00;8.30;;;;;;;;;;6278036;22;20023;-77
2022/10/02 01:28:26;;;;;;;13.35;8.57;;;;;;;;;;6306687;22;20015;-77
2022/10/02 01:30:57;;;;;;;11.50;7.43;;;;;;;;;;6305750;22;20039;-78
2022/10/02 01:33:24;;;;;;;8.32;6.90;;;;;;;;;;6306377;22;20014;-79
2022/10/02 01:35:52;;;;;;;9.18;7.00;;;;;;;;;;6306729;22;20043;-78
2022/10/02 01:38:21;;;;;;;9.35;7.10;;;;;;;;;;6306812;22;20332;-78
2022/10/02 01:40:48;;;;;;;11.95;6.93;;;;;;;;;;6306757;22;20015;-79
2022/10/02 01:43:19;;;;;;;9.95;7.10;;;;;;;;;;6306510;22;20015;-79
2022/10/02 01:45:49;;;;;;;8.50;6.80;;;;;;;;;;6306589;22;20380;-79
2022/10/02 01:48:37;;;;;;;9.77;6.20;;;;;;;;;;6307304;22;20094;-80
2022/10/02 01:51:08;;;;;;;9.18;6.65;;;;;;;;;;6247344;22;20082;-80
2022/10/02 01:53:56;;;;;;;9.18;5.90;;;;;;;;;;6280310;22;20345;-82
2022/10/02 01:56:33;;;;;;;9.80;5.90;;;;;;;;;;6308534;22;20021;-80
2022/10/02 01:59:16;;;;;;;10.93;6.05;;;;;;;;;;6308665;22;20019;-79
2022/10/02 02:02:02;;;;;;;8.43;5.80;;;;;;;;;;6308492;22;20081;-80
2022/10/02 02:04:41;;;;;;;7.75;5.68;;;;;;;;;;6308625;22;20089;-79
2022/10/02 02:07:11;;;;;;;8.75;5.40;;;;;;;;;;6308218;22;20019;-82
2022/10/02 02:09:42;;;;;;;6.55;5.18;;;;;;;;;;6307785;22;20026;-80
2022/10/02 02:12:12;;;;;;;6.93;5.47;;;;;;;;;;6306700;22;20042;-80
2022/10/02 02:14:46;;;;;;;6.82;5.35;;;;;;;;;;6308070;22;20046;-81
2022/10/02 02:17:39;;;;;;;8.25;6.20;;;;;;;;;;6281045;22;20019;-80
2022/10/02 02:20:09;;;;;;;8.52;5.30;;;;;;;;;;6307755;22;20011;-80
2022/10/02 02:22:40;;;;;;;9.55;6.75;;;;;;;;;;6307259;22;20023;-81
2022/10/02 02:25:09;;;;;;;6.40;5.55;;;;;;;;;;6308382;22;20429;-81
2022/10/02 02:27:42;;;;;;;10.55;5.93;;;;;;;;;;6308219;22;20015;-82
2022/10/02 02:30:11;;;;;;;10.40;5.10;;;;;;;;;;6307308;22;20042;-83
2022/10/02 02:33:01;;;;;;;7.45;5.32;;;;;;;;;;6307444;22;20502;-81
2022/10/02 02:35:39;;;;;;;7.53;4.82;;;;;;;;;;6266326;22;20020;-80
2022/10/02 02:38:09;;;;;;;6.82;4.90;;;;;;;;;;6308111;22;20019;-79
2022/10/02 02:40:39;;;;;;;8.60;5.65;;;;;;;;;;6308303;22;20329;-82
2022/10/02 02:43:16;;;;;;;7.05;4.07;;;;;;;;;;6280628;22;20026;-82
2022/10/02 02:45:48;;;;;;;5.00;3.67;;;;;;;;;;6308060;22;20018;-81
2022/10/02 02:48:20;;;;;;;5.03;3.90;;;;;;;;;;6307336;22;20072;-81
2022/10/02 02:50:50;;;;;;;4.47;3.28;;;;;;;;;;6308094;22;20522;-80
2022/10/02 02:53:26;;;;;;;5.97;4.28;;;;;;;;;;6307968;22;20432;-81
2022/10/02 02:56:01;;;;;;;6.72;4.32;;;;;;;;;;6308082;22;20016;-78
2022/10/02 02:58:35;;;;;;;6.25;4.13;;;;;;;;;;6307440;22;20086;-83
2022/10/02 03:01:02;;;;;;;5.57;3.40;;;;;;;;;;6280749;22;20019;-81
2022/10/02 03:03:29;;;;;;;4.18;3.63;;;;;;;;;;6308005;22;20106;-81
2022/10/02 03:06:02;;;;;;;5.60;3.70;;;;;;;;;;6308491;22;20019;-82
2022/10/02 03:08:31;;;;;;;5.55;4.32;;;;;;;;;;6308448;22;20019;-81
2022/10/02 03:11:09;;;;;;;4.35;3.17;;;;;;;;;;6307963;22;20524;-81
2022/10/02 03:13:37;;;;;;;5.50;3.40;;;;;;;;;;6308070;22;20042;-79
2022/10/02 03:16:23;;;;;;;6.82;4.25;;;;;;;;;;6307609;22;20011;-79
2022/10/02 03:19:13;;;;;;;6.45;3.45;;;;;;;;;;6307568;22;20041;-82
2022/10/02 03:22:10;;;;;;;3.40;2.88;;;;;;;;;;6307170;22;20015;-78
2022/10/02 03:24:49;;;;;;;4.35;3.22;;;;;;;;;;6281707;22;20029;-83
2022/10/02 03:27:22;;;;;;;7.05;3.90;;;;;;;;;;6307900;22;20368;-82
2022/10/02 03:29:56;;;;;;;7.75;3.42;;;;;;;;;;6307232;22;20026;-81
2022/10/02 03:32:24;;;;;;;5.30;3.35;;;;;;;;;;6307967;22;20396;-80
2022/10/02 03:34:52;;;;;;;5.43;3.40;;;;;;;;;;6307363;22;20022;-81
2022/10/02 03:37:20;;;;;;;4.25;3.10;;;;;;;;;;6307862;22;20042;-81
2022/10/02 03:39:51;;;;;;;6.53;3.85;;;;;;;;;;6307859;22;20019;-81
2022/10/02 03:42:23;;;;;;;6.82;4.40;;;;;;;;;;6307192;22;20368;-80
2022/10/02 03:44:50;;;;;;;7.05;5.15;;;;;;;;;;6307037;22;20421;-80
2022/10/02 03:47:18;;;;;;;8.40;4.07;;;;;;;;;;6306581;22;20069;-83
2022/10/02 03:49:45;;;;;;;4.20;2.78;;;;;;;;;;6306797;22;20053;-82
2022/10/02 03:52:17;;;;;;;4.38;3.25;;;;;;;;;;6307795;22;20073;-80
2022/10/02 03:54:45;;;;;;;4.05;2.60;;;;;;;;;;6307387;22;20015;-79
2022/10/02 03:57:17;;;;;;;5.45;2.67;;;;;;;;;;6307554;22;20050;-80
2022/10/02 03:59:57;;;;;;;6.65;4.05;;;;;;;;;;6307418;22;20073;-80
2022/10/02 04:02:43;;;;;;;5.90;3.72;;;;;;;;;;6307447;22;20019;-80
2022/10/02 04:05:16;;;;;;;7.15;4.40;;;;;;;;;;6307283;22;20073;-79
2022/10/02 04:07:46;;;;;;;10.75;8.63;;;;;;;;;;6307724;22;20046;-79
2022/10/02 04:10:22;;;;;;;5.28;4.25;;;;;;;;;;6306350;22;20338;-80
2022/10/02 04:12:54;;;;;;;8.15;5.15;;;;;;;;;;6307212;22;20466;-81
2022/10/02 04:15:30;;;;;;;5.95;5.18;;;;;;;;;;6307043;22;20012;-74
2022/10/02 04:18:00;;;;;;;5.80;3.53;;;;;;;;;;6307125;22;20038;-76
2022/10/02 04:20:48;;;;;;;6.53;4.40;;;;;;;;;;6306803;22;20550;-76
2022/10/02 04:23:23;;;;;;;8.23;4.70;;;;;;;;;;6306876;22;20084;-75
2022/10/02 04:25:52;;;;;;;5.63;4.55;;;;;;;;;;6307154;22;20078;-75
2022/10/02 04:28:22;;;;;;;20.40;14.65;;;;;;;;;;6306194;22;20015;-74
2022/10/02 04:30:51;;;;;;;7.22;5.13;;;;;;;;;;6307509;22;20034;-74
2022/10/02 04:33:19;;;;;;;8.27;6.35;;;;;;;;;;6307141;22;20019;-76
2022/10/02 04:35:56;;;;;;;7.68;6.00;;;;;;;;;;6303418;22;20019;-75
2022/10/02 04:38:42;;;;;;;6.72;5.68;;;;;;;;;;6306312;22;20094;-78
2022/10/02 04:41:19;;;;;;;6.30;4.65;;;;;;;;;;6306647;22;20337;-77
2022/10/02 04:44:05;;;;;;;6.65;5.95;;;;;;;;;;6306350;22;20405;-77
2022/10/02 04:46:41;;;;;;;6.90;4.93;;;;;;;;;;6304988;22;20128;-75
2022/10/02 04:49:08;;;;;;;7.32;4.88;;;;;;;;;;6279347;22;20015;-76
2022/10/02 04:51:44;;;;;;;5.63;4.82;;;;;;;;;;6305813;22;20062;-76
2022/10/02 04:54:30;;;;;;;5.18;4.65;;;;;;;;;;6305935;22;20355;-77
2022/10/02 04:57:09;;;;;;;7.50;5.38;;;;;;;;;;6306283;22;20086;-77
2022/10/02 04:59:49;;;;;;;5.88;4.55;;;;;;;;;;6306271;22;20023;-78
2022/10/02 05:02:29;;;;;;;5.32;4.20;;;;;;;;;;6305776;22;20022;-77
2022/10/02 05:05:03;;;;;;;5.70;4.10;;;;;;;;;;6279187;22;20011;-77
2022/10/02 05:07:30;;;;;;;4.53;3.95;;;;;;;;;;6306451;22;20022;-75
2022/10/02 05:10:33;;;;;;;5.78;4.30;;;;;;;;;;6279326;22;20019;-74
2022/10/02 05:13:04;;;;;;;5.50;4.13;;;;;;;;;;6181439;23;20044;-78
2022/10/02 05:15:35;;;;;;;7.03;4.00;;;;;;;;;;6286009;22;20015;-78
2022/10/02 05:18:15;;;;;;;8.55;5.00;;;;;;;;;;6306340;22;20038;-77
2022/10/02 05:20:56;;;;;;;8.45;5.93;;;;;;;;;;6280068;22;20012;-74
2022/10/02 05:23:54;;;;;;;5.68;4.88;;;;;;;;;;6280399;22;20023;-77
2022/10/02 05:26:24;;;;;;;5.38;3.95;;;;;;;;;;6308582;22;20383;-76
2022/10/02 05:29:10;;;;;;;6.10;4.78;;;;;;;;;;6308140;22;20065;-76
2022/10/02 05:31:41;;;;;;;8.70;6.38;;;;;;;;;;6306694;22;20065;-76
2022/10/02 05:34:14;;;;;;;5.20;3.47;;;;;;;;;;6279757;22;20019;-78
2022/10/02 05:37:03;;;;;;;5.90;4.82;;;;;;;;;;6280965;22;20020;-77
2022/10/02 05:39:32;;;;;;;4.95;3.60;;;;;;;;;;6307918;22;20433;-77
2022/10/02 05:42:05;;;;;;;4.88;3.53;;;;;;;;;;6307376;22;20019;-78
2022/10/02 05:44:42;;;;;;;5.38;4.45;;;;;;;;;;6307464;22;20495;-76
2022/10/02 05:47:10;;;;;;;5.78;3.42;;;;;;;;;;6307995;22;20018;-75
2022/10/02 05:49:42;;;;;;;8.38;5.25;;;;;;;;;;6307901;22;20019;-77
2022/10/02 05:52:15;;;;;;;5.10;3.60;;;;;;;;;;6307919;22;20012;-75
2022/10/02 05:54:54;;;;;;;5.78;4.10;;;;;;;;;;6308097;22;20026;-78
2022/10/02 05:57:25;;;;;;;8.30;6.55;;;;;;;;;;6306978;22;20065;-77
2022/10/02 06:00:04;;;;;;;7.50;4.22;;;;;;;;;;6308256;22;20022;-78
2022/10/02 06:02:52;;;;;;;4.13;3.30;;;;;;;;;;6307398;22;20027;-76
2022/10/02 06:05:20;;;;;;;4.18;3.45;;;;;;;;;;6308250;22;20398;-76
2022/10/02 06:07:50;;;;;;;6.68;3.92;;;;;;;;;;6308091;22;20322;-78
2022/10/02 06:10:24;;;;;;;4.97;3.47;;;;;;;;;;6280835;22;20011;-77
2022/10/02 06:12:56;;;;;;;4.43;3.33;;;;;;;;;;6307873;22;20041;-76
2022/10/02 06:15:27;;;;;;;4.38;2.70;;;;;;;;;;6308444;22;20019;-76
2022/10/02 06:18:04;;;;;;;3.00;2.70;;;;;;;;;;6308536;22;20336;-79
2022/10/02 06:20:44;;;;;;;2.63;2.42;;;;;;;;;;6281142;22;20015;-78
2022/10/02 06:23:11;;;;;;;3.05;2.53;;;;;;;;;;6307036;22;20528;-77
2022/10/02 06:25:58;;;;;;;2.55;2.25;;;;;;;;;;6307894;22;20441;-75
2022/10/02 06:28:25;;;;;;;3.72;2.58;;;;;;;;;;6305972;22;20011;-72
2022/10/02 06:31:05;;;;;;;5.35;2.92;;;;;;;;;;6307296;22;20015;-75
2022/10/02 06:33:33;;;;;;;3.50;2.70;;;;;;;;;;6308014;22;20034;-74
2022/10/02 06:36:20;;;;;;;4.55;3.72;;;;;;;;;;6308067;22;20046;-77
2022/10/02 06:38:56;;;;;;;6.72;4.97;;;;;;;;;;6280872;22;20015;-76
2022/10/02 06:41:30;;;;;;;4.28;3.42;;;;;;;;;;6307971;22;20015;-76
2022/10/02 06:44:06;;;;;;;5.60;4.38;;;;;;;;;;6280641;22;20476;-76
2022/10/02 06:46:40;;;;;;;5.30;4.00;;;;;;;;;;6307974;22;20698;-74
2022/10/02 06:49:10;;;;;;;8.50;4.93;;;;;;;;;;6308526;22;20015;-76
2022/10/02 06:51:44;;;;;;;5.60;4.15;;;;;;;;;;6308186;22;20011;-76
2022/10/02 06:54:30;;;;;;;7.25;3.95;;;;;;;;;;6307969;22;20016;-76
2022/10/02 06:57:13;;;;;;;17.27;15.45;;;;;;;;;;6281179;22;20015;-77
2022/10/02 07:00:15;;;;;;;11.93;10.77;;;;;;;;;;6307665;22;20014;-77
2022/10/02 07:03:00;;;;;;;3.42;2.40;;;;;;;;;;6283727;22;20319;-76
2022/10/02 07:05:47;;;;;;;2.50;2.00;;;;;;;;;;6305066;22;20019;-77
2022/10/02 07:08:37;;;;;;;5.15;1.95;;;;;;;;;;6279602;22;20019;-79
2022/10/02 07:11:10;;;;;;;2.10;2.00;;;;;;;;;;6279443;22;20412;-77
2022/10/02 07:13:57;;;;;;;4.15;2.10;;;;;;;;;;6307333;22;20019;-76
2022/10/02 07:16:51;;;;;;;3.42;2.30;;;;;;;;;;6307878;22;20093;-76
2022/10/02 07:19:50;;;;;;;4.13;2.13;;;;;;;;;;6302238;22;20019;-74
2022/10/02 07:22:18;;;;;;;3.58;2.13;;;;;;;;;;6174791;22;20371;-77
2022/10/02 07:25:19;;;;;;;3.03;2.10;;;;;;;;;;6280349;22;20039;-77
2022/10/02 07:27:59;;;;;;;2.50;2.03;;;;;;;;;;6307973;22;20302;-76
2022/10/02 07:30:29;;;;;;;2.85;2.03;;;;;;;;;;6280595;22;20011;-78
2022/10/02 07:32:59;;;;;;;1.85;1.65;;;;;;;;;;6307585;22;20045;-79
2022/10/02 07:35:37;;;;;;;3.65;1.77;;;;;;;;;;6281464;22;20022;-79
2022/10/02 07:38:11;;;;;;;3.60;1.73;;;;;;;;;;6280554;22;20518;-77
2022/10/02 07:40:51;;;;;;;1.98;1.77;;;;;;;;;;6307759;22;20453;-82
2022/10/02 07:43:21;;;;;;;3.28;1.70;;;;;;;;;;6307678;22;20334;-78
2022/10/02 07:46:15;;;;;;;2.05;1.80;;;;;;;;;;6307260;22;20019;-79
2022/10/02 07:49:02;;;;;;;1.30;1.20;;;;;;;;;;6262152;22;20051;-81
2022/10/02 07:51:48;;;;;;;2.05;1.33;;;;;;;;;;6307448;22;20341;-78
2022/10/02 07:54:34;;;;;;;4.13;1.48;;;;;;;;;;6307469;22;20019;-79
2022/10/02 07:57:04;;;;;;;4.35;1.50;;;;;;;;;;6306921;22;20015;-78
2022/10/02 07:59:39;;;;;;;8.35;7.25;;;;;;;;;;6307298;22;20042;-77
2022/10/02 08:02:13;;;;;;;3.42;2.30;;;;;;;;;;6307679;22;20344;-77
2022/10/02 08:04:40;;;;;;;4.03;2.70;;;;;;;;;;6307300;22;20437;-76
2022/10/02 08:07:08;;;;;;;4.68;3.08;;;;;;;;;;6308136;22;20034;-76
2022/10/02 08:09:41;;;;;;;2.83;2.00;;;;;;;;;;6308099;22;20015;-77
2022/10/02 08:12:31;;;;;;;3.28;2.53;;;;;;;;;;6308132;22;20022;-78
2022/10/02 08:15:00;;;;;;;4.10;2.03;;;;;;;;;;6307255;22;20019;-76
2022/10/02 08:17:44;;;;;;;3.90;2.15;;;;;;;;;;6307658;22;20449;-76
2022/10/02 08:20:21;;;;;;;4.70;2.22;;;;;;;;;;6307819;22;20011;-76
2022/10/02 08:23:19;;;;;;;4.10;1.50;;;;;;;;;;6307204;22;20019;-77
2022/10/02 08:25:56;;;;;;;3.50;1.70;;;;;;;;;;6307242;22;20014;-76
2022/10/02 08:28:27;;;;;;;2.35;2.10;;;;;;;;;;6305640;22;20015;-76
2022/10/02 08:30:56;;;;;;;3.38;1.73;;;;;;;;;;6306389;22;20472;-76
2022/10/02 08:33:24;;;;;;;3.20;2.33;;;;;;;;;;6306709;22;20011;-76
2022/10/02 08:36:12;;;;;;;2.85;1.40;;;;;;;;;;6307076;22;20019;-78
2022/10/02 08:38:48;;;;;;;4.80;1.67;;;;;;;;;;6245604;22;20019;-76
2022/10/02 08:41:24;;;;;;;1.65;1.40;;;;;;;;;;6307164;22;20464;-77
2022/10/02 08:44:05;;;;;;;4.47;1.63;;;;;;;;;;6307077;22;20022;-76
2022/10/02 08:46:44;;;;;;;3.17;1.50;;;;;;;;;;6307117;22;20015;-76
2022/10/02 08:49:30;;;;;;;4.38;2.00;;;;;;;;;;6306995;22;20019;-77
2022/10/02 08:51:58;;;;;;;2.13;1.27;;;;;;;;;;6307053;22;20015;-77
2022/10/02 08:54:35;;;;;;;2.00;1.67;;;;;;;;;;6307099;22;20015;-77
2022/10/02 08:57:29;;;;;;;2.25;1.60;;;;;;;;;;6307018;22;20022;-78
2022/10/02 09:00:10;;;;;;;2.40;1.30;;;;;;;;;;6302387;22;20445;-77
2022/10/02 09:02:52;;;;;;;2.15;1.50;;;;;;;;;;6307161;22;20074;-76
2022/10/02 09:05:38;;;;;;;2.13;1.40;;;;;;;;;;6307065;22;20015;-76
2022/10/02 09:08:36;;;;;;;2.30;1.50;;;;;;;;;;6307031;22;20081;-76
2022/10/02 09:11:12;;;;;;;3.22;1.30;;;;;;;;;;6306772;22;20016;-76
2022/10/02 09:13:53;;;;;;;1.77;1.55;;;;;;;;;;6306768;22;20494;-77
2022/10/02 09:16:29;;;;;;;4.43;3.22;;;;;;;;;;6306657;22;20019;-76
2022/10/02 09:19:10;;;;;;;6.38;2.65;;;;;;;;;;6306717;22;20011;-77
2022/10/02 09:21:50;;;;;;;3.47;2.05;;;;;;;;;;6306789;22;20022;-76
2022/10/02 09:24:36;;;;;;;2.88;2.35;;;;;;;;;;6306643;22;20088;-76
2022/10/02 09:27:22;;;;;;;5.65;2.90;;;;;;;;;;6306665;22;20058;-77
2022/10/02 09:30:02;;;;;;;2.50;1.70;;;;;;;;;;6306558;22;20012;-78
2022/10/02 09:32:42;;;;;;;2.88;1.75;;;;;;;;;;6306619;22;20038;-76
2022/10/02 09:35:28;;;;;;;3.90;2.13;;;;;;;;;;6279683;22;20484;-77
2022/10/02 09:38:09;;;;;;;5.03;3.58;;;;;;;;;;6306968;22;20433;-76
2022/10/02 09:40:37;;;;;;;2.55;1.52;;;;;;;;;;6306767;22;20073;-76
2022/10/02 09:43:23;;;;;;;3.65;1.88;;;;;;;;;;6306694;22;20039;-77
2022/10/02 09:45:53;;;;;;;4.75;1.45;;;;;;;;;;6279767;22;20026;-77
2022/10/02 09:48:26;;;;;;;2.22;1.80;;;;;;;;;;6306559;22;20016;-76
2022/10/02 09:51:04;;;;;;;1.30;1.15;;;;;;;;;;6279159;22;20026;-77
2022/10/02 09:53:50;;;;;;;1.52;1.00;;;;;;;;;;6279330;22;20027;-76
2022/10/02 09:56:19;;;;;;;3.47;1.35;;;;;;;;;;6306453;22;20030;-76
2022/10/02 09:58:59;;;;;;;4.20;1.98;;;;;;;;;;6306946;22;20042;-76
2022/10/02 10:01:49;;;;;;;2.53;2.13;;;;;;;;;;6306800;22;20012;-77
2022/10/02 10:04:26;;;;;;;3.17;1.83;;;;;;;;;;6306219;22;20027;-77
2022/10/02 10:07:22;;;;;;;3.45;1.40;;;;;;;;;;6306596;22;20019;-76
2022/10/02 10:10:02;;;;;;;3.28;1.27;;;;;;;;;;6308078;22;20019;-76
2022/10/02 10:12:29;;;;;;;6.20;1.60;;;;;;;;;;6308421;22;20015;-76
2022/10/02 10:15:16;;;;;;;2.45;1.45;;;;;;;;;;6308440;22;20015;-76
2022/10/02 10:17:59;;;;;;;2.05;1.60;;;;;;;;;;6308568;22;20076;-76
2022/10/02 10:20:29;;;;;;;5.70;1.70;;;;;;;;;;6308449;22;20015;-76
2022/10/02 10:22:57;;;;;;;3.15;1.42;;;;;;;;;;6308379;22;20459;-76
2022/10/02 10:25:35;;;;;;;9.00;1.27;;;;;;;;;;6308296;22;20448;-76
2022/10/02 10:28:06;;;;;;;3.42;1.15;;;;;;;;;;6308518;22;20607;-77
2022/10/02 10:30:52;;;;;;;3.72;1.27;;;;;;;;;;6308478;22;20019;-75
2022/10/02 10:33:23;;;;;;;2.20;1.40;;;;;;;;;;6308652;22;20019;-76
2022/10/02 10:35:53;;;;;;;13.60;9.27;;;;;;;;;;6308496;22;20011;-77
2022/10/02 10:38:38;;;;;;;4.13;1.42;;;;;;;;;;6308125;22;20023;-77
2022/10/02 10:41:08;;;;;;;;;;;;;;;;;;6308586;22;20057;-76
2022/10/02 10:43:40;;;;;;;58.97;47.13;;;;;;;;;;6308149;22;19953;-76
2022/10/02 10:46:40;;;;;;;12.40;10.23;;;;;;;;;;6308221;22;20023;-76
2022/10/02 10:49:29;;;;;;;65.90;50.67;;;;;;;;;;6240955;22;20015;-76
2022/10/02 10:52:02;;;;;;;21.13;15.25;;;;;;;;;;6307946;22;20019;-75
2022/10/02 10:54:49;;;;;;;45.50;33.53;;;;;;;;;;6308196;22;20038;-75
2022/10/02 10:57:21;;;;;;;53.15;47.28;;;;;;;;;;6281115;22;20016;-75
2022/10/02 11:00:08;;;;;;;92.57;80.82;;;;;;;;;;6308416;22;20015;-76
2022/10/02 11:02:42;;;;;;;7.00;5.75;;;;;;;;;;6308077;22;20011;-77
2022/10/02 11:05:10;;;;;;;;;;;;;;;;;;6308570;22;20077;-76
2022/10/02 11:07:43;;;;;;;11.10;8.25;;;;;;;;;;6280526;22;20328;-77
2022/10/02 11:10:14;;;;;;;1.70;1.48;;;;;;;;;;6307950;22;20019;-77
2022/10/02 11:12:54;;;;;;;61.78;48.95;;;;;;;;;;6307780;22;20022;-77
2022/10/02 11:15:36;;;;;;;2.70;1.52;;;;;;;;;;6307818;22;20068;-76
2022/10/02 11:18:13;;;;;;;3.63;2.67;;;;;;;;;;6280961;22;20322;-76
2022/10/02 11:21:06;;;;;;;11.63;6.53;;;;;;;;;;6307952;22;20018;-76
2022/10/02 11:23:40;;;;;;;7.13;4.97;;;;;;;;;;6307699;22;20015;-76
2022/10/02 11:26:20;;;;;;;5.60;3.08;;;;;;;;;;6307782;22;20015;-76
2022/10/02 11:29:10;;;;;;;6.30;3.63;;;;;;;;;;6307692;22;20030;-76
2022/10/02 11:31:53;;;;;;;123.05;99.43;;;;;;;;;;6307714;22;20020;-76
2022/10/02 11:34:41;;;;;;;47.67;30.25;;;;;;;;;;6307579;22;20072;-76
2022/10/02 11:37:12;;;;;;;101.03;78.85;;;;;;;;;;6307693;22;20102;-75
2022/10/02 11:39:40;;;;;;;23.77;16.58;;;;;;;;;;6307474;22;20428;-76
2022/10/02 11:42:26;;;;;;;12.38;9.63;;;;;;;;;;6307651;22;20015;-77
2022/10/02 11:44:56;;;;;;;11.45;7.13;;;;;;;;;;6307070;22;20463;-76
2022/10/02 11:47:27;;;;;;;18.30;13.57;;;;;;;;;;6307776;22;20015;-75
2022/10/02 11:50:13;;;;;;;24.90;18.58;;;;;;;;;;6307440;22;20023;-76
2022/10/02 11:52:40;;;;;;;5.30;3.85;;;;;;;;;;6307570;22;20018;-77
2022/10/02 11:55:14;;;;;;;6.70;4.38;;;;;;;;;;6307411;22;20337;-76
2022/10/02 11:57:46;;;;;;;2.70;2.03;;;;;;;;;;6307422;22;20082;-76
2022/10/02 12:00:32;;;;;;;6.57;4.28;;;;;;;;;;6307420;22;20026;-76
2022/10/02 12:03:04;;;;;;;4.10;1.75;;;;;;;;;;6307426;22;20026;-76
2022/10/02 12:05:38;;;;;;;3.58;1.60;;;;;;;;;;6279769;22;20019;-76
2022/10/02 12:08:23;;;;;;;2.03;1.30;;;;;;;;;;6307548;22;20022;-76
2022/10/02 12:10:55;;;;;;;2.22;1.13;;;;;;;;;;6307135;22;20332;-76
2022/10/02 12:13:28;;;;;;;2.28;0.80;;;;;;;;;;6306984;22;20026;-75
2022/10/02 12:16:02;;;;;;;1.05;0.93;;;;;;;;;;6307121;22;20090;-76
2022/10/02 12:18:51;;;;;;;4.67;1.17;;;;;;;;;;6307353;22;20015;-75
2022/10/02 12:27:08;;;;;;;4.30;0.95;;;;;;;;;;6307287;22;20025;-76
2022/10/02 12:29:39;;;;;;;1.15;0.90;;;;;;;;;;6307271;22;20011;-76
2022/10/02 12:32:13;;;;;;;1.95;1.10;;;;;;;;;;6306926;22;20030;-77
2022/10/02 12:34:51;;;;;;;2.78;1.20;;;;;;;;;;6306380;22;20015;-76
2022/10/02 12:37:38;;;;;;;4.82;1.33;;;;;;;;;;6307198;22;20387;-77
2022/10/02 12:40:16;;;;;;;4.10;1.20;;;;;;;;;;6306885;22;20015;-76
2022/10/02 12:42:50;;;;;;;1.25;1.10;;;;;;;;;;6306985;22;20015;-76
2022/10/02 12:45:17;;;;;;;2.15;1.13;;;;;;;;;;6306773;22;20441;-71
2022/10/02 12:47:53;;;;;;;2.53;1.50;;;;;;;;;;6306778;22;20075;-77
2022/10/02 12:50:22;;;;;;;4.55;2.20;;;;;;;;;;6306851;22;20072;-80
2022/10/02 12:53:05;;;;;;;3.50;2.10;;;;;;;;;;6306947;22;20011;-77
2022/10/02 12:55:46;;;;;;;9.10;4.10;;;;;;;;;;6306858;22;20084;-75
2022/10/02 12:58:24;;;;;;;6.18;3.58;;;;;;;;;;6306840;22;20015;-76
2022/10/02 13:01:04;;;;;;;2.90;2.33;;;;;;;;;;6306782;22;20015;-80
2022/10/02 13:03:50;;;;;;;4.78;3.35;;;;;;;;;;6307647;22;20011;-79
2022/10/02 13:06:42;;;;;;;7.57;2.40;;;;;;;;;;6308719;22;20078;-82
2022/10/02 13:09:15;;;;;;;3.97;2.17;;;;;;;;;;6307542;22;20015;-83
2022/10/02 13:11:55;;;;;;;2.53;2.03;;;;;;;;;;6307634;22;20029;-82
2022/10/02 13:14:51;;;;;;;4.53;2.30;;;;;;;;;;6306966;22;20023;-79
2022/10/02 13:17:19;;;;;;;4.53;1.75;;;;;;;;;;6279055;22;20022;-77
2022/10/02 13:20:05;;;;;;;9.20;3.75;;;;;;;;;;6305856;22;20019;-82
2022/10/02 13:22:38;;;;;;;7.35;5.40;;;;;;;;;;6306066;22;20441;-79
2022/10/02 13:25:18;;;;;;;3.67;2.20;;;;;;;;;;6306032;22;20021;-78
2022/10/02 13:27:58;;;;;;;5.65;3.40;;;;;;;;;;6304138;22;20732;-78
2022/10/02 13:30:27;;;;;;;8.07;3.10;;;;;;;;;;6304983;22;20148;-78
2022/10/02 13:32:57;;;;;;;15.00;10.15;;;;;;;;;;6305731;22;20016;-75
2022/10/02 13:35:31;;;;;;;28.05;19.33;;;;;;;;;;6307044;22;20015;-76
2022/10/02 13:37:59;;;;;;;5.63;4.15;;;;;;;;;;6306028;22;20015;-77
2022/10/02 13:40:30;;;;;;;8.73;6.35;;;;;;;;;;6306235;22;20065;-76
2022/10/02 13:43:04;;;;;;;12.48;7.75;;;;;;;;;;6306685;22;20015;-76
2022/10/02 13:45:40;;;;;;;11.68;5.13;;;;;;;;;;6308052;22;20441;-76
2022/10/02 13:48:17;;;;;;;8.90;4.93;;;;;;;;;;6308200;22;20038;-76
2022/10/02 13:50:59;;;;;;;4.97;3.10;;;;;;;;;;6307939;22;20023;-75
2022/10/02 13:53:44;;;;;;;6.95;3.45;;;;;;;;;;6308007;22;20038;-76
2022/10/02 13:56:27;;;;;;;5.00;2.72;;;;;;;;;;6307376;22;20021;-76
2022/10/02 13:58:55;;;;;;;4.28;2.55;;;;;;;;;;6308252;22;20022;-74
2022/10/02 14:01:30;;;;;;;5.80;4.60;;;;;;;;;;6308277;22;20042;-75
2022/10/02 14:04:13;;;;;;;5.63;3.58;;;;;;;;;;6307308;22;20445;-75
2022/10/02 14:06:47;;;;;;;2.22;1.90;;;;;;;;;;6308873;22;20082;-76
2022/10/02 14:09:27;;;;;;;1.52;1.20;;;;;;;;;;6308156;22;20022;-76
2022/10/02 14:11:55;;;;;;;4.45;2.50;;;;;;;;;;6308187;22;20019;-74
2022/10/02 14:14:22;;;;;;;3.40;2.00;;;;;;;;;;6308254;22;20015;-74
2022/10/02 14:16:59;;;;;;;2.45;1.60;;;;;;;;;;6308294;22;20026;-75
2022/10/02 14:19:51;;;;;;;3.83;1.13;;;;;;;;;;6308045;22;20467;-76
2022/10/02 14:22:19;;;;;;;3.10;2.40;;;;;;;;;;6308082;22;20023;-76
2022/10/02 14:24:58;;;;;;;2.28;0.98;;;;;;;;;;6307962;22;20021;-75
2022/10/02 14:27:44;;;;;;;0.82;0.60;;;;;;;;;;6308015;22;20045;-76
2022/10/02 14:30:14;;;;;;;2.70;1.80;;;;;;;;;;6308166;22;20453;-76
2022/10/02 14:32:51;;;;;;;2.55;1.38;;;;;;;;;;6308180;22;20472;-76
2022/10/02 14:35:19;;;;;;;5.28;1.73;;;;;;;;;;6308162;22;20023;-75
2022/10/02 14:37:55;;;;;;;4.55;2.20;;;;;;;;;;6280133;22;20019;-76
2022/10/02 14:40:30;;;;;;;5.22;4.22;;;;;;;;;;6307336;22;20051;-76
2022/10/02 14:43:36;;;;;;;11.85;7.32;;;;;;;;;;6307735;22;20031;-76
2022/10/02 14:46:22;;;;;;;10.75;6.35;;;;;;;;;;6182800;23;20262;-73
2022/10/02 14:49:12;;;;;;;5.72;4.38;;;;;;;;;;6182512;23;20538;-74
2022/10/02 14:51:40;;;;;;;5.97;3.55;;;;;;;;;;6280282;22;20065;-74
2022/10/02 14:54:19;;;;;;;4.10;2.38;;;;;;;;;;6306270;22;20087;-75
2022/10/02 14:56:53;;;;;;;3.20;2.17;;;;;;;;;;6307614;22;20337;-76
2022/10/02 14:59:20;;;;;;;2.90;2.00;;;;;;;;;;6280563;22;20015;-76
2022/10/02 15:01:50;;;;;;;1.83;1.30;;;;;;;;;;6306511;22;20506;-77
2022/10/02 15:04:21;;;;;;;4.18;2.10;;;;;;;;;;6280628;22;20015;-76
2022/10/02 15:07:03;;;;;;;2.78;1.90;;;;;;;;;;6308985;22;20387;-77
2022/10/02 15:09:50;;;;;;;3.08;2.28;;;;;;;;;;6307911;22;20012;-76
2022/10/02 15:12:21;;;;;;;4.43;2.00;;;;;;;;;;6279261;22;20084;-76
2022/10/02 15:14:51;;;;;;;3.85;1.73;;;;;;;;;;6280702;22;20447;-76
2022/10/02 15:20:14;;;;;;;3.45;1.30;;;;;;;;;;6306794;22;20455;-76
2022/10/02 15:22:47;;;;;;;4.93;1.65;;;;;;;;;;6307155;22;20330;-76
2022/10/02 15:25:17;;;;;;;8.35;5.05;;;;;;;;;;6306234;22;20019;-74
2022/10/02 15:27:59;;;;;;;3.95;1.80;;;;;;;;;;6307163;22;20018;-74
2022/10/02 15:30:56;;;;;;;5.22;1.33;;;;;;;;;;6307013;22;20433;-74
2022/10/02 15:33:23;;;;;;;2.38;1.40;;;;;;;;;;6307581;22;20022;-75
2022/10/02 15:35:50;;;;;;;3.80;1.52;;;;;;;;;;6280011;22;20395;-76
2022/10/02 15:38:18;;;;;;;2.40;1.60;;;;;;;;;;6307321;22;20015;-75
2022/10/02 15:41:03;;;;;;;1.00;0.90;;;;;;;;;;6307279;22;20094;-76
2022/10/02 15:43:46;;;;;;;3.35;1.30;;;;;;;;;;6307303;22;20042;-76
2022/10/02 15:46:32;;;;;;;7.40;3.47;;;;;;;;;;6307250;22;20023;-76